Time;durP1;ratioP1;P1;durP2;ratioP2;P2;SDS_P1;SDS_P2;PMS_P1;PMS_P2;Temp;Humidity;BMP_temperature;BMP_pressure;BME280_temperature;BME280_humidity;BME280_pressure;Samples;Min_cycle;Max_cycle;Signal;HPM_P1;HPM_P2
2023/11/27 00:01:12;;;;;;;;;24.00;17.00;;;;;-1.92;87.87;99140.44;6311635;20;2835748;-49
2023/11/27 00:03:41;;;;;;;;;32.33;19.67;;;;;-2.04;89.62;99147.69;6282111;20;2840906;-49
2023/11/27 00:06:10;;;;;;;;;21.50;18.00;;;;;-1.60;88.82;99151.19;6309922;20;2823231;-49
2023/11/27 00:08:39;;;;;;;;;28.33;22.00;;;;;-1.53;88.57;99148.41;6283054;20;3561824;-49
2023/11/27 00:11:08;;;;;;;;;21.33;16.67;;;;;-1.79;89.53;99144.53;6311460;20;3566304;-48
2023/11/27 00:13:36;;;;;;;;;18.50;18.50;;;;;-1.69;89.00;99146.09;6314436;20;2821086;-48
2023/11/27 00:16:06;;;;;;;;;19.00;15.00;;;;;-1.40;87.88;99149.88;6278466;20;2804508;-49
2023/11/27 00:18:38;;;;;;;;;30.00;21.17;;;;;-2.23;90.92;99141.91;6302290;20;2843025;-45
2023/11/27 00:21:08;;;;;;;;;19.40;12.20;;;;;-1.43;89.42;99155.22;6335983;20;2786881;-44
2023/11/27 00:23:40;;;;;;;;;23.50;13.33;;;;;-1.21;88.08;99161.75;6323022;20;2840979;-45
2023/11/27 00:26:10;;;;;;;;;21.80;18.20;;;;;-1.36;88.06;99152.41;6333558;20;2827469;-45
2023/11/27 00:28:38;;;;;;;;;18.50;13.50;;;;;-1.29;88.27;99155.78;6277925;20;2825398;-48
2023/11/27 00:31:09;;;;;;;;;21.33;19.00;;;;;-1.29;88.56;99161.06;6281011;20;2858711;-44
2023/11/27 00:33:41;;;;;;;;;14.33;12.67;;;;;-1.29;89.43;99150.53;6352087;20;1819018;-45
2023/11/27 00:36:11;;;;;;;;;27.33;15.67;;;;;-1.28;89.17;99144.34;6280015;20;3579456;-44
2023/11/27 00:38:40;;;;;;;;;20.33;18.33;;;;;-1.03;88.05;99146.41;6307956;20;3560664;-44
2023/11/27 00:41:14;;;;;;;;;24.83;17.17;;;;;-1.01;88.60;99148.09;6335574;20;2837910;-44
2023/11/27 00:43:43;;;;;;;;;15.00;15.00;;;;;-1.22;89.18;99149.47;6311693;20;2801347;-44
2023/11/27 00:46:13;;;;;;;;;19.00;18.00;;;;;-1.33;90.44;99146.22;6279851;20;2830494;-44
2023/11/27 00:48:42;;;;;;;;;9.75;8.00;;;;;-1.27;89.85;99159.25;6296070;20;1832670;-44
2023/11/27 00:51:10;;;;;;;;;13.00;10.00;;;;;-1.13;89.51;99159.81;6311357;20;2785780;-45
2023/11/27 00:53:38;;;;;;;;;22.00;15.00;;;;;-1.04;89.64;99153.47;6279179;20;2800381;-44
2023/11/27 00:56:08;;;;;;;;;17.00;13.00;;;;;-1.19;89.14;99154.66;6291946;20;1832737;-44
2023/11/27 00:58:40;;;;;;;;;18.57;15.57;;;;;-1.29;89.95;99153.16;6349532;20;1816959;-44
2023/11/27 01:01:10;;;;;;;;;14.20;10.00;;;;;-1.19;89.79;99149.41;6334296;20;2798217;-43
2023/11/27 01:03:38;;;;;;;;;20.50;18.50;;;;;-1.33;90.41;99146.22;6282075;20;2830541;-45
2023/11/27 01:06:15;;;;;;;;;18.60;18.20;;;;;-1.16;90.47;99138.81;6304081;20;2831532;-44
2023/11/27 01:08:43;;;;;;;;;23.67;18.33;;;;;-1.12;90.03;99132.56;6277078;20;3563844;-44
2023/11/27 01:11:12;;;;;;;;;22.00;16.00;;;;;-0.99;90.10;99129.66;6307885;20;2831550;-44
2023/11/27 01:13:41;;;;;;;;;32.00;21.67;;;;;-1.05;90.28;99125.41;6309395;20;3582592;-44
2023/11/27 01:16:12;;;;;;;;;25.17;19.17;;;;;-1.03;90.50;99125.34;6297658;20;2834766;-46
2023/11/27 01:18:40;;;;;;;;;13.50;10.00;;;;;-1.04;90.51;99126.25;6309368;20;2787798;-44
2023/11/27 01:21:10;;;;;;;;;12.80;12.00;;;;;-1.05;91.61;99125.41;6304378;20;2769143;-45
2023/11/27 01:23:39;;;;;;;;;17.00;12.50;;;;;-0.95;91.32;99131.28;6280651;20;2798200;-45
2023/11/27 01:26:07;;;;;;;;;15.00;15.00;;;;;-1.05;90.70;99135.03;6278406;20;2814874;-45
2023/11/27 01:28:36;;;;;;;;;13.00;9.50;;;;;-0.89;91.35;99137.28;6278195;20;2772199;-45
2023/11/27 01:31:06;;;;;;;;;20.20;14.60;;;;;-1.09;91.77;99133.41;6304145;20;2817958;-44
2023/11/27 01:33:35;;;;;;;;;11.25;8.50;;;;;-0.96;91.54;99142.75;6298606;20;1831528;-47
2023/11/27 01:36:04;;;;;;;;;19.00;13.75;;;;;-0.96;92.14;99138.34;6325306;20;1842086;-44
2023/11/27 01:38:32;;;;;;;;;21.00;15.00;;;;;-0.97;92.72;99139.25;6307674;20;2798411;-46
2023/11/27 01:41:01;;;;;;;;;15.67;11.67;;;;;-1.01;92.48;99141.97;6278587;20;2809828;-44
2023/11/27 01:43:45;;;;;;;;;21.00;17.33;;;;;-0.89;92.63;99141.69;6307814;20;3571197;-45
2023/11/27 01:46:25;;;;;;;;;15.00;10.00;;;;;-0.86;92.20;99141.63;6307771;20;2789913;-45
2023/11/27 01:48:56;;;;;;;;;10.00;9.00;;;;;-0.82;91.64;99145.91;6294785;20;1828495;-44
2023/11/27 01:51:26;;;;;;;;;16.00;10.25;;;;;-0.85;92.96;99142.47;6327464;20;1823255;-46
2023/11/27 01:54:00;;;;;;;;;20.50;19.00;;;;;-0.77;92.01;99141.38;6308805;20;2825314;-44
2023/11/27 01:56:31;;;;;;;;;20.20;14.00;;;;;-0.67;92.01;99136.75;6301815;20;2801403;-46
2023/11/27 01:59:01;;;;;;;;;18.00;13.00;;;;;-0.82;92.21;99132.72;6297261;20;1840051;-47
2023/11/27 02:01:32;;;;;;;;;20.00;14.00;;;;;-0.55;91.92;99140.88;6309187;20;2812908;-45
2023/11/27 02:04:03;;;;;;;;;15.40;15.00;;;;;-0.49;90.98;99136.28;6303227;20;2817016;-45
2023/11/27 02:06:33;;;;;;;;;15.40;11.40;;;;;-0.34;90.30;99139.44;6311843;20;2804054;-45
2023/11/27 02:09:01;;;;;;;;;14.00;13.00;;;;;-0.45;90.31;99126.53;6283276;20;2778546;-44
2023/11/27 02:11:30;;;;;;;;;16.00;13.25;;;;;-0.38;90.82;99130.75;6302600;20;1831627;-45
2023/11/27 02:14:00;;;;;;;;;20.00;16.00;;;;;-0.55;91.23;99135.59;6312847;20;2820065;-44
2023/11/27 02:16:29;;;;;;;;;13.50;12.25;;;;;-0.37;90.59;99132.50;6302899;20;1830698;-43
2023/11/27 02:18:56;;;;;;;;;19.50;14.00;;;;;-0.20;89.80;99118.84;6312949;20;2800248;-44
2023/11/27 02:21:24;;;;;;;;;9.00;9.00;;;;;-0.23;90.05;99111.88;6284199;20;2758662;-44
2023/11/27 02:23:52;;;;;;;;;12.00;7.00;;;;;-0.27;89.91;99110.22;6313549;20;2773275;-43
2023/11/27 02:26:20;;;;;;;;;15.50;10.50;;;;;-0.18;89.93;99113.53;6284463;20;2783632;-44
2023/11/27 02:28:48;;;;;;;;;11.00;11.00;;;;;-0.07;89.60;99100.91;6281240;20;2810699;-44
2023/11/27 02:31:16;;;;;;;;;19.50;13.00;;;;;0.03;88.91;99097.09;6281458;20;2786704;-44
2023/11/27 02:33:45;;;;;;;;;12.25;9.50;;;;;-0.03;89.21;99113.09;6298376;20;1825504;-44
2023/11/27 02:36:13;;;;;;;;;17.00;11.00;;;;;-0.18;89.71;99103.84;6312742;20;2801374;-44
2023/11/27 02:38:42;;;;;;;;;12.25;10.25;;;;;-0.11;89.14;99104.53;6302052;20;1836845;-44
2023/11/27 02:41:13;;;;;;;;;13.33;9.67;;;;;-0.02;89.90;99094.59;6357489;20;1815001;-45
2023/11/27 02:43:40;;;;;;;;;16.00;14.00;;;;;-0.03;89.31;99092.88;6282381;20;2805486;-44
2023/11/27 02:46:09;;;;;;;;;8.00;7.00;;;;;-0.16;90.57;99095.88;6285074;20;3465916;-44
2023/11/27 02:48:37;;;;;;;;;13.00;10.33;;;;;-0.06;89.93;99092.06;6280601;20;3509670;-45
2023/11/27 02:51:06;;;;;;;;;22.00;14.00;;;;;-0.05;89.85;99093.81;6282539;20;2824253;-44
2023/11/27 02:53:34;;;;;;;;;25.50;17.50;;;;;-0.35;91.13;99082.31;6285350;20;2830624;-44
2023/11/27 02:56:08;;;;;;;;;23.00;16.00;;;;;-0.31;91.66;99087.47;6302813;20;2834698;-45
2023/11/27 02:58:38;;;;;;;;;20.00;17.00;;;;;-0.17;91.07;99092.38;6312444;20;3566894;-44
2023/11/27 03:01:10;;;;;;;;;20.33;14.67;;;;;-0.05;90.96;99091.19;6311200;20;3543991;-44
2023/11/27 03:03:39;;;;;;;;;17.33;14.67;;;;;-0.10;91.16;99085.16;6311369;20;3554541;-45
2023/11/27 03:06:09;;;;;;;;;31.67;25.33;;;;;0.07;90.43;99085.53;6313506;20;3575493;-43
2023/11/27 03:08:37;;;;;;;;;27.50;22.00;;;;;0.29;89.76;99082.25;6283434;20;2834624;-45
2023/11/27 03:11:06;;;;;;;;;23.33;20.67;;;;;0.20;89.91;99081.63;6278935;20;3579472;-44
2023/11/27 03:13:45;;;;;;;;;16.80;14.20;;;;;0.26;90.25;99077.06;6338738;20;2794035;-44
2023/11/27 03:16:13;;;;;;;;;21.00;19.00;;;;;0.21;90.33;99074.56;6280591;20;2827530;-45
2023/11/27 03:18:42;;;;;;;;;26.00;20.33;;;;;0.17;91.49;99073.81;6280402;20;3569037;-46
2023/11/27 03:21:23;;;;;;;;;19.50;15.50;;;;;0.39;89.92;99071.38;6313395;20;2827365;-45
2023/11/27 03:23:51;;;;;;;;;24.00;16.67;;;;;0.19;91.02;99077.28;6278419;20;3571076;-44
2023/11/27 03:26:22;;;;;;;;;20.00;17.00;;;;;0.24;90.74;99070.97;6313356;20;2827347;-47
2023/11/27 03:28:50;;;;;;;;;25.67;18.00;;;;;0.37;90.47;99074.97;6309114;20;3571069;-44
2023/11/27 03:31:19;;;;;;;;;23.67;18.00;;;;;0.51;90.61;99074.59;6310658;20;3582563;-45
2023/11/27 03:33:49;;;;;;;;;19.00;17.00;;;;;0.31;91.19;99070.75;6311486;20;3562826;-46
2023/11/27 03:36:18;;;;;;;;;21.33;15.00;;;;;0.40;90.93;99065.19;6309743;20;3546051;-45
2023/11/27 03:38:47;;;;;;;;;19.00;18.67;;;;;0.42;90.95;99051.94;6310392;20;3569013;-44
2023/11/27 03:41:21;;;;;;;;;20.67;14.33;;;;;0.31;92.10;99067.25;6314545;20;3550269;-44
2023/11/27 03:43:50;;;;;;;;;19.67;18.00;;;;;0.16;93.02;99072.09;6310351;20;3555550;-45
2023/11/27 03:46:20;;;;;;;;;14.67;14.67;;;;;0.28;92.29;99065.56;6311955;20;2790971;-44
2023/11/27 03:48:48;;;;;;;;;18.50;16.00;;;;;0.45;92.13;99059.78;6313557;20;2826563;-45
2023/11/27 03:51:16;;;;;;;;;15.00;11.00;;;;;0.65;91.64;99065.28;6283647;20;2779555;-45
2023/11/27 03:53:44;;;;;;;;;17.50;14.50;;;;;0.60;92.04;99056.66;6280500;20;2805601;-44
2023/11/27 03:56:12;;;;;;;;;16.50;9.00;;;;;0.59;91.59;99057.56;6280298;20;2772168;-43
2023/11/27 03:58:40;;;;;;;;;13.00;8.00;;;;;0.72;91.47;99057.19;6283222;20;2766946;-45
2023/11/27 04:01:13;;;;;;;;;16.60;11.80;;;;;0.57;91.46;99054.09;6332018;20;2800277;-45
2023/11/27 04:03:42;;;;;;;;;11.00;11.00;;;;;0.76;92.19;99056.16;6280807;20;2777421;-44
2023/11/27 04:06:12;;;;;;;;;16.00;12.00;;;;;0.64;92.52;99045.09;6277732;20;2793389;-45
2023/11/27 04:08:42;;;;;;;;;18.60;15.00;;;;;0.40;94.27;99036.16;6305081;20;2811747;-45
2023/11/27 04:11:10;;;;;;;;;18.00;13.50;;;;;0.67;93.77;99038.00;6280915;20;2804810;-48
2023/11/27 04:13:38;;;;;;;;;13.00;13.00;;;;;0.54;94.98;99033.09;6281221;20;2789882;-46
2023/11/27 04:16:11;;;;;;;;;9.00;9.00;;;;;0.84;94.42;99033.91;6306868;20;1824357;-44
2023/11/27 04:18:40;;;;;;;;;18.00;14.00;;;;;0.85;94.16;99030.31;6313811;20;2809643;-44
2023/11/27 04:21:08;;;;;;;;;16.00;11.50;;;;;0.77;95.05;99027.06;6279335;20;2794023;-45
2023/11/27 04:23:36;;;;;;;;;15.00;12.00;;;;;0.79;94.72;99024.34;6283687;20;2796195;-45
2023/11/27 04:26:05;;;;;;;;;19.00;13.50;;;;;0.88;94.59;99026.72;6280184;20;2799829;-43
2023/11/27 04:28:33;;;;;;;;;13.00;13.00;;;;;0.86;94.57;99036.47;6279240;20;2782575;-44
2023/11/27 04:31:01;;;;;;;;;20.00;12.00;;;;;0.92;94.62;99030.97;6281519;20;2808652;-43
2023/11/27 04:33:30;;;;;;;;;20.33;16.67;;;;;0.62;95.22;99027.56;6281414;20;3562780;-44
2023/11/27 04:36:00;;;;;;;;;18.80;15.60;;;;;0.83;95.30;99034.78;6332801;20;2827770;-44
2023/11/27 04:38:28;;;;;;;;;14.50;14.50;;;;;0.72;95.72;99034.28;6277253;20;2795101;-44
2023/11/27 04:40:58;;;;;;;;;17.80;16.40;;;;;0.57;96.35;99030.34;6304110;20;2816954;-44
2023/11/27 04:43:29;;;;;;;;;21.83;21.83;;;;;0.68;96.61;99032.63;6304415;20;2833096;-45
2023/11/27 04:45:57;;;;;;;;;13.00;8.50;;;;;0.44;97.03;99003.44;6312648;20;2776342;-48
2023/11/27 04:48:26;;;;;;;;;17.33;17.33;;;;;0.66;97.55;99002.78;6280112;20;2820073;-46
2023/11/27 04:50:56;;;;;;;;;18.00;15.00;;;;;0.34;98.56;98995.88;6336207;20;2695049;-45
2023/11/27 04:53:24;;;;;;;;;15.00;12.50;;;;;0.76;97.94;99003.31;6308167;20;2794141;-44
2023/11/27 04:55:53;;;;;;;;;20.67;16.67;;;;;0.96;96.28;99011.47;6280494;20;3564836;-44
2023/11/27 04:58:24;;;;;;;;;18.33;15.00;;;;;0.79;97.06;99024.34;6310671;20;3554454;-45
2023/11/27 05:00:54;;;;;;;;;18.00;16.00;;;;;0.83;97.15;99026.84;6310661;20;3549245;-44
2023/11/27 05:03:22;;;;;;;;;19.33;15.67;;;;;0.76;96.47;99021.81;6312478;20;3551296;-44
2023/11/27 05:05:50;;;;;;;;;31.00;25.00;;;;;0.86;96.62;99031.19;6310282;20;2500312;-45
2023/11/27 05:08:20;;;;;;;;;74.33;56.33;;;;;0.54;98.56;99034.88;6280727;20;2894093;-44
2023/11/27 05:10:49;;;;;;;;;47.50;43.50;;;;;0.57;98.22;99030.34;6312933;20;2838971;-44
2023/11/27 05:13:18;;;;;;;;;75.50;54.50;;;;;0.57;97.27;99030.34;6280629;20;2892061;-44
2023/11/27 05:15:47;;;;;;;;;68.00;50.00;;;;;0.67;97.92;99027.41;6280493;20;2854566;-45
2023/11/27 05:18:15;;;;;;;;;31.00;25.50;;;;;0.74;98.22;99026.28;6277564;20;2500430;-44
2023/11/27 05:20:46;;;;;;;;;22.17;16.67;;;;;0.47;98.59;99022.75;6300132;20;2833789;-44
2023/11/27 05:23:14;;;;;;;;;19.00;16.00;;;;;0.64;99.32;99026.59;6311421;20;2824390;-44
2023/11/27 05:25:43;;;;;;;;;26.00;20.00;;;;;0.64;99.52;99021.31;6279082;20;2825359;-44
2023/11/27 05:28:12;;;;;;;;;22.00;20.00;;;;;0.54;100.00;99019.03;6278706;20;3556502;-45
2023/11/27 05:30:41;;;;;;;;;23.67;18.00;;;;;0.63;100.00;99024.00;6277350;20;3571168;-46
2023/11/27 05:33:10;;;;;;;;;21.00;18.00;;;;;0.60;100.00;99019.66;6306662;20;3551392;-45
2023/11/27 05:35:39;;;;;;;;;21.33;16.00;;;;;0.73;100.00;99019.28;6307913;20;3555488;-43
2023/11/27 05:38:08;;;;;;;;;17.50;12.50;;;;;0.73;100.00;99024.56;6308021;20;2794227;-45
2023/11/27 05:40:37;;;;;;;;;23.67;18.33;;;;;0.73;100.00;99030.72;6283265;20;3559762;-44
2023/11/27 05:43:07;;;;;;;;;19.50;14.00;;;;;0.61;100.00;99031.13;6313225;20;2821109;-44
2023/11/27 05:45:40;;;;;;;;;13.67;10.67;;;;;0.96;100.00;99043.19;6325187;20;1814414;-50
2023/11/27 05:48:08;;;;;;;;;20.00;15.50;;;;;0.77;100.00;99042.06;6278064;20;2804483;-53
2023/11/27 05:50:41;;;;;;;;;16.00;15.00;;;;;0.97;100.00;99042.25;6283200;20;3552368;-52
2023/11/27 05:53:14;;;;;;;;;21.40;20.20;;;;;0.78;100.00;99043.78;6336954;20;2826275;-54
2023/11/27 05:55:42;;;;;;;;;15.00;13.00;;;;;0.77;100.00;99031.50;6285388;20;2781534;-50
2023/11/27 05:58:11;;;;;;;;;15.00;15.00;;;;;0.54;100.00;99021.66;6285788;20;3542948;-52
2023/11/27 06:00:41;;;;;;;;;24.60;18.20;;;;;0.64;100.00;99029.25;6334194;20;2823211;-53
2023/11/27 06:03:10;;;;;;;;;19.67;16.00;;;;;0.68;100.00;99023.84;6280611;20;3554538;-54
2023/11/27 06:05:38;;;;;;;;;22.50;21.50;;;;;0.98;100.00;99028.16;6319206;20;2825398;-55
2023/11/27 06:08:07;;;;;;;;;19.00;19.00;;;;;0.81;100.00;99025.19;6282510;20;3558688;-52
2023/11/27 06:10:35;;;;;;;;;14.00;7.00;;;;;1.12;100.00;99026.81;6318253;20;2756549;-52
2023/11/27 06:13:05;;;;;;;;;21.60;19.00;;;;;0.94;100.00;99029.16;6337341;20;2813876;-51
2023/11/27 06:15:33;;;;;;;;;11.00;9.00;;;;;1.01;100.00;99025.41;6305678;20;1837800;-51
2023/11/27 06:18:03;;;;;;;;;17.00;12.00;;;;;1.12;100.00;99026.81;6315009;20;2787815;-50
2023/11/27 06:20:31;;;;;;;;;11.00;11.00;;;;;1.05;100.00;99027.03;6283663;20;2787833;-49
2023/11/27 06:23:03;;;;;;;;;12.00;12.00;;;;;1.18;100.00;99032.75;6321733;20;1816983;-54
2023/11/27 06:25:31;;;;;;;;;20.00;14.00;;;;;1.23;100.00;99032.59;6313965;20;2800226;-51
2023/11/27 06:27:59;;;;;;;;;19.00;13.00;;;;;1.19;100.00;99045.06;6285611;20;2802433;-41
2023/11/27 06:30:28;;;;;;;;;15.50;14.00;;;;;1.27;100.00;99042.16;6314237;20;2792008;-41
2023/11/27 06:32:56;;;;;;;;;16.50;12.00;;;;;1.20;100.00;99035.34;6282812;20;2781562;-42
2023/11/27 06:35:24;;;;;;;;;19.00;12.00;;;;;1.29;100.00;99042.94;6284251;20;2804449;-41
2023/11/27 06:37:52;;;;;;;;;18.33;15.67;;;;;1.34;100.00;99037.50;6282094;20;3553406;-43
2023/11/27 06:40:24;;;;;;;;;21.67;17.67;;;;;1.45;100.00;99035.34;6313823;20;3571107;-45
2023/11/27 06:43:10;;;;;;;;;28.00;20.00;;;;;1.41;100.00;99039.03;6313508;20;3582616;-44
2023/11/27 06:45:39;;;;;;;;;27.00;24.67;;;;;1.39;100.00;99028.50;6282772;20;3583678;-45
2023/11/27 06:48:08;;;;;;;;;38.00;22.00;;;;;1.45;100.00;99025.66;6311567;20;2491976;-45
2023/11/27 06:50:36;;;;;;;;;26.00;23.50;;;;;1.38;100.00;99028.56;6281833;20;2500339;-46
2023/11/27 06:53:05;;;;;;;;;36.67;23.33;;;;;1.53;100.00;99035.97;6281047;20;3610762;-45
2023/11/27 06:55:34;;;;;;;;;27.00;27.00;;;;;1.39;100.00;99031.13;6283508;20;2844100;-47
2023/11/27 06:58:03;;;;;;;;;43.00;32.50;;;;;1.24;100.00;99021.97;6283688;20;2858642;-44
2023/11/27 07:00:33;;;;;;;;;31.67;27.33;;;;;1.25;100.00;99030.78;6278441;20;3583584;-44
2023/11/27 07:03:03;;;;;;;;;22.67;19.67;;;;;1.47;100.00;99018.50;6282795;20;3575294;-44
2023/11/27 07:05:32;;;;;;;;;18.00;17.50;;;;;1.38;100.00;99016.19;6314238;20;2820089;-50
2023/11/27 07:08:01;;;;;;;;;17.67;17.67;;;;;1.48;100.00;99022.03;6280407;20;3560695;-54
2023/11/27 07:10:29;;;;;;;;;17.00;16.00;;;;;1.46;100.00;99003.56;6315791;20;2835702;-50
2023/11/27 07:12:58;;;;;;;;;22.67;20.00;;;;;1.38;100.00;99016.19;6279281;20;3563832;-53
2023/11/27 07:15:28;;;;;;;;;20.33;19.67;;;;;1.23;100.00;99016.72;6314304;20;3552210;-52
2023/11/27 07:17:58;;;;;;;;;20.00;17.00;;;;;1.38;100.00;99018.84;6315680;20;2703418;-51
2023/11/27 07:20:45;;;;;;;;;19.33;16.00;;;;;1.34;100.00;99030.44;6283532;20;3560859;-54
2023/11/27 07:23:15;;;;;;;;;19.00;15.33;;;;;1.21;100.00;99030.03;6313080;20;3557544;-51
2023/11/27 07:25:43;;;;;;;;;19.00;12.00;;;;;1.36;100.00;99030.41;6315037;20;2790933;-52
2023/11/27 07:28:12;;;;;;;;;22.00;19.33;;;;;1.41;100.00;99031.09;6282112;20;3551309;-52
2023/11/27 07:30:43;;;;;;;;;19.00;18.00;;;;;1.42;100.00;99030.16;6280871;20;3560724;-54
2023/11/27 07:33:12;;;;;;;;;18.33;18.33;;;;;1.32;100.00;99021.72;6310563;20;3545009;-52
2023/11/27 07:35:43;;;;;;;;;23.00;20.33;;;;;1.41;100.00;99018.72;6312311;20;3570136;-50
2023/11/27 07:38:13;;;;;;;;;93.67;66.67;;;;;1.56;100.00;99013.84;6313427;20;3639929;-51
2023/11/27 07:40:43;;;;;;;;;78.67;58.67;;;;;1.73;100.00;99014.06;6314118;20;2894247;-53
2023/11/27 07:43:13;;;;;;;;;76.33;59.00;;;;;1.65;100.00;99010.84;6310156;20;3619032;-49
2023/11/27 07:45:43;;;;;;;;;44.33;37.67;;;;;1.76;100.00;99008.66;6311136;20;2865944;-50
2023/11/27 07:48:12;;;;;;;;;48.00;40.67;;;;;1.60;100.00;99008.34;6311610;20;2853414;-51
2023/11/27 07:50:41;;;;;;;;;52.50;43.00;;;;;1.73;100.00;98998.19;6310728;20;2487776;-45
2023/11/27 07:53:11;;;;;;;;;37.67;30.67;;;;;1.93;100.00;98989.53;6279379;20;3585701;-43
2023/11/27 07:55:40;;;;;;;;;24.67;21.00;;;;;1.75;100.00;98996.34;6283193;20;3566950;-43
2023/11/27 07:58:09;;;;;;;;;25.67;21.33;;;;;1.82;100.00;98984.63;6279496;20;3564915;-42
2023/11/27 08:00:38;;;;;;;;;21.00;17.00;;;;;1.93;100.00;98985.09;6312600;20;3547371;-42
2023/11/27 08:03:06;;;;;;;;;21.50;16.50;;;;;1.72;100.00;98980.59;6276850;20;2812999;-44
2023/11/27 08:05:35;;;;;;;;;18.67;14.00;;;;;1.90;100.00;98990.50;6280919;20;3550283;-46
2023/11/27 08:08:04;;;;;;;;;22.33;18.33;;;;;1.80;100.00;98993.56;6313436;20;3568026;-44
2023/11/27 08:10:36;;;;;;;;;26.67;21.00;;;;;1.74;100.00;98992.00;6283290;20;3568998;-45
2023/11/27 08:13:05;;;;;;;;;24.67;21.00;;;;;1.79;100.00;98998.00;6281453;20;3566924;-43
2023/11/27 08:15:33;;;;;;;;;26.00;21.00;;;;;2.03;100.00;98997.97;6315353;20;2829464;-43
2023/11/27 08:18:04;;;;;;;;;17.00;17.00;;;;;1.74;100.00;98994.66;6283859;20;2831441;-43
2023/11/27 08:20:35;;;;;;;;;29.67;23.67;;;;;1.90;100.00;99006.38;6283280;20;3567960;-43
2023/11/27 08:23:04;;;;;;;;;19.67;16.00;;;;;1.71;100.00;99006.22;6279656;20;3559711;-43
2023/11/27 08:25:33;;;;;;;;;40.00;31.33;;;;;1.73;100.00;99003.47;6313044;20;3610754;-42
2023/11/27 08:28:03;;;;;;;;;37.50;28.00;;;;;1.89;100.00;99007.28;6279424;20;2860737;-45
2023/11/27 08:30:32;;;;;;;;;60.00;44.00;;;;;1.83;100.00;99004.88;6278035;20;2493139;-44
2023/11/27 08:33:02;;;;;;;;;61.67;44.33;;;;;2.05;100.00;99004.91;6277805;20;2865448;-43
2023/11/27 08:35:34;;;;;;;;;46.67;37.67;;;;;2.01;100.00;99002.47;6314593;20;2880536;-45
2023/11/27 08:38:04;;;;;;;;;61.50;47.00;;;;;2.27;100.00;99004.97;6313428;20;2865899;-45
2023/11/27 08:40:33;;;;;;;;;66.00;50.00;;;;;2.38;100.00;99004.56;6283726;20;2881612;-45
2023/11/27 08:43:02;;;;;;;;;36.00;31.00;;;;;2.31;100.00;99008.38;6279627;20;2738847;-43
2023/11/27 08:45:32;;;;;;;;;45.50;40.00;;;;;2.34;100.00;98995.00;6313301;20;2858622;-43
2023/11/27 08:48:03;;;;;;;;;30.00;22.00;;;;;2.39;100.00;99004.47;6281017;20;2864943;-44
2023/11/27 08:50:36;;;;;;;;;27.00;21.00;;;;;2.48;100.00;98997.13;6284571;20;2829878;-43
2023/11/27 08:53:09;;;;;;;;;33.00;27.00;;;;;2.41;100.00;99001.78;6275625;20;2848195;-44
2023/11/27 08:55:37;;;;;;;;;34.00;29.00;;;;;2.32;100.00;99003.03;6283714;20;2500279;-44
2023/11/27 08:58:06;;;;;;;;;40.50;31.00;;;;;2.55;100.00;99003.88;6278868;20;2500305;-45
2023/11/27 09:00:35;;;;;;;;;17.00;17.00;;;;;2.55;100.00;99004.75;6283308;20;3550258;-44
2023/11/27 09:03:05;;;;;;;;;21.00;19.33;;;;;2.69;100.00;99006.84;6311047;20;3560687;-43
2023/11/27 09:05:34;;;;;;;;;26.33;23.00;;;;;2.70;100.00;99005.06;6284609;20;3567982;-44
2023/11/27 09:08:05;;;;;;;;;21.00;19.67;;;;;2.71;100.00;99004.97;6312649;20;3541976;-45
2023/11/27 09:10:36;;;;;;;;;27.00;21.00;;;;;2.85;100.00;99002.66;6310339;20;2496091;-44
2023/11/27 09:13:07;;;;;;;;;27.33;24.33;;;;;2.76;100.00;99008.31;6278501;20;3589856;-42
2023/11/27 09:15:35;;;;;;;;;23.00;21.00;;;;;2.80;100.00;99009.06;6289799;20;2826286;-49
2023/11/27 09:18:04;;;;;;;;;23.00;18.00;;;;;2.55;100.00;99007.38;6291641;20;2829542;-54
2023/11/27 09:20:32;;;;;;;;;29.00;19.00;;;;;2.66;100.00;99001.69;6291104;20;2857987;-53
2023/11/27 09:23:02;;;;;;;;;24.67;19.00;;;;;2.69;100.00;99001.56;6285834;20;3550365;-53
2023/11/27 09:25:31;;;;;;;;;14.33;14.33;;;;;2.53;100.00;98996.00;6283311;20;3545104;-51
2023/11/27 09:27:59;;;;;;;;;29.00;25.50;;;;;2.20;100.00;98992.91;6317254;20;2837845;-50
2023/11/27 09:30:27;;;;;;;;;34.00;29.00;;;;;2.31;100.00;98993.31;6280358;20;2500264;-52
2023/11/27 09:32:55;;;;;;;;;26.00;22.50;;;;;2.47;100.00;98995.38;6287906;20;2846151;-52
2023/11/27 09:35:24;;;;;;;;;21.67;19.00;;;;;2.45;100.00;98998.09;6287413;20;3554465;-50
2023/11/27 09:37:53;;;;;;;;;17.67;15.67;;;;;2.37;100.00;98990.47;6284308;20;2826437;-41
2023/11/27 09:40:21;;;;;;;;;26.00;24.00;;;;;2.48;100.00;98981.22;6314509;20;2500326;-44
2023/11/27 09:42:50;;;;;;;;;27.00;24.50;;;;;2.30;100.00;98993.41;6286322;20;2833721;-45
2023/11/27 09:45:20;;;;;;;;;33.50;30.00;;;;;2.44;100.00;98985.75;6283955;20;2859726;-44
2023/11/27 09:47:50;;;;;;;;;23.00;19.33;;;;;2.53;100.00;98982.75;6285229;20;3569154;-44
2023/11/27 09:50:21;;;;;;;;;31.50;25.50;;;;;2.33;100.00;98983.53;6317894;20;2857550;-44
2023/11/27 09:53:08;;;;;;;;;34.00;30.00;;;;;2.59;100.00;98976.34;6286626;20;2844011;-45
2023/11/27 09:55:39;;;;;;;;;25.33;23.33;;;;;2.44;100.00;98974.31;6288188;20;3571593;-45
2023/11/27 09:58:09;;;;;;;;;33.00;26.50;;;;;2.38;100.00;98972.78;6283344;20;2854523;-46
2023/11/27 10:00:42;;;;;;;;;33.50;30.50;;;;;2.41;100.00;98968.22;6284607;20;2852437;-43
2023/11/27 10:03:12;;;;;;;;;38.50;36.50;;;;;2.42;100.00;98969.06;6282255;20;2863924;-44
2023/11/27 10:05:49;;;;;;;;;29.00;26.00;;;;;2.35;100.00;98955.22;6286415;20;2500292;-42
2023/11/27 10:08:18;;;;;;;;;28.00;25.50;;;;;2.41;100.00;98956.75;6282101;20;2500286;-43
2023/11/27 10:10:49;;;;;;;;;29.00;28.50;;;;;2.47;100.00;98947.69;6285920;20;2846144;-43
2023/11/27 10:13:34;;;;;;;;;26.50;26.00;;;;;2.60;100.00;98949.78;6282778;20;2500256;-42
2023/11/27 10:16:23;;;;;;;;;49.00;41.00;;;;;2.44;100.00;98943.38;6286639;20;2761788;-42
2023/11/27 10:18:52;;;;;;;;;36.00;32.50;;;;;2.26;100.00;98939.69;6313895;20;2866955;-42
2023/11/27 10:21:22;;;;;;;;;28.00;24.00;;;;;2.46;100.00;98935.38;6286308;20;2846120;-42
2023/11/27 10:23:51;;;;;;;;;35.00;34.50;;;;;2.38;100.00;98933.91;6284832;20;2856567;-42
2023/11/27 10:26:21;;;;;;;;;38.50;32.00;;;;;2.38;100.00;98928.59;6284786;20;2846228;-43
2023/11/27 10:28:50;;;;;;;;;35.50;27.00;;;;;2.59;100.00;98926.00;6285766;20;2845092;-42
2023/11/27 10:31:19;;;;;;;;;39.00;30.50;;;;;2.55;100.00;98925.25;6286657;20;2853468;-42
2023/11/27 10:33:48;;;;;;;;;39.00;32.50;;;;;2.62;100.00;98926.72;6284861;20;2858054;-42
2023/11/27 10:36:23;;;;;;;;;33.00;29.00;;;;;2.92;100.00;98921.06;6284549;20;2873703;-42
2023/11/27 10:39:08;;;;;;;;;31.00;29.00;;;;;2.71;100.00;98920.16;6283500;20;2500313;-42
2023/11/27 10:41:38;;;;;;;;;35.00;31.50;;;;;2.83;100.00;98921.47;6278630;20;2500292;-44
2023/11/27 10:44:08;;;;;;;;;38.50;32.50;;;;;2.78;100.00;98921.66;6282040;20;2847180;-43
2023/11/27 10:46:37;;;;;;;;;35.00;30.00;;;;;3.03;100.00;98918.81;6280084;20;2500350;-43
2023/11/27 10:49:07;;;;;;;;;37.00;31.50;;;;;3.27;100.00;98908.94;6280097;20;2500445;-43
2023/11/27 10:51:36;;;;;;;;;34.50;31.50;;;;;3.42;100.00;98907.38;6282380;20;2847219;-45
2023/11/27 10:54:06;;;;;;;;;27.50;24.50;;;;;3.21;100.00;98909.22;6281517;20;2852483;-42
2023/11/27 10:56:38;;;;;;;;;38.50;36.50;;;;;3.72;100.00;98896.28;6282770;20;2861818;-43
2023/11/27 10:59:09;;;;;;;;;37.50;30.00;;;;;3.53;100.00;98898.94;6283308;20;2858740;-51
2023/11/27 11:01:43;;;;;;;;;34.50;33.00;;;;;3.47;100.00;98892.09;6280027;20;2840895;-51
2023/11/27 11:04:52;;;;;;;;;39.50;34.00;;;;;3.37;100.00;98900.53;6284299;20;2864006;-47
2023/11/27 11:07:43;;;;;;;;;39.00;36.00;;;;;3.52;100.00;98897.19;6285138;20;2866077;-47
2023/11/27 11:10:15;;;;;;;;;34.50;33.00;;;;;3.61;100.00;98894.13;6314342;20;2839856;-46
2023/11/27 11:12:47;;;;;;;;;48.67;38.00;;;;;3.51;100.00;98898.16;6281347;20;2871268;-54
2023/11/27 11:15:34;;;;;;;;;44.67;38.00;;;;;3.44;100.00;98894.88;6314615;20;2865963;-52
2023/11/27 11:18:48;;;;;;;;;41.33;38.00;;;;;3.29;100.00;98891.16;6315438;20;3607666;-54